Time;durP1;ratioP1;P1;durP2;ratioP2;P2;SDS_P1;SDS_P2;PMS_P1;PMS_P2;Temp;Humidity;BMP_temperature;BMP_pressure;BME280_temperature;BME280_humidity;BME280_pressure;Samples;Min_cycle;Max_cycle;Signal;HPM_P1;HPM_P2
2021/08/23 00:00:54;;;;;;;7.82;4.28;;;;;;;13.48;100.00;100975.16;5054235;28;20103;-80
2021/08/23 00:03:19;;;;;;;10.95;4.45;;;;;;;13.46;100.00;100969.13;5056134;28;20036;-80
2021/08/23 00:05:44;;;;;;;8.05;4.53;;;;;;;13.39;100.00;100975.38;5055452;28;20060;-80
2021/08/23 00:08:10;;;;;;;10.35;5.10;;;;;;;13.43;100.00;100969.22;5055634;28;20028;-81
2021/08/23 00:10:35;;;;;;;9.40;4.50;;;;;;;13.43;100.00;100974.44;5054065;28;20393;-81
2021/08/23 00:13:00;;;;;;;11.73;4.40;;;;;;;13.51;100.00;100976.84;5055491;28;20068;-80
2021/08/23 00:15:25;;;;;;;8.38;4.22;;;;;;;13.54;100.00;100976.75;5054088;28;20025;-81
2021/08/23 00:17:51;;;;;;;11.00;4.00;;;;;;;13.57;100.00;100974.94;5055216;28;20029;-80
2021/08/23 00:20:17;;;;;;;12.48;4.10;;;;;;;13.59;100.00;100969.69;5053900;28;20029;-81
2021/08/23 00:22:51;;;;;;;11.95;4.68;;;;;;;13.64;100.00;100974.78;5055041;28;20382;-81
2021/08/23 00:25:18;;;;;;;8.52;4.15;;;;;;;13.69;100.00;100971.19;5055242;28;20024;-81
2021/08/23 00:27:43;;;;;;;11.27;4.78;;;;;;;13.64;100.00;100972.19;5053770;28;20029;-81
2021/08/23 00:30:10;;;;;;;8.38;3.92;;;;;;;13.62;100.00;100971.38;5053688;28;20028;-81
2021/08/23 00:32:36;;;;;;;8.93;3.70;;;;;;;13.57;100.00;100976.69;5053691;28;20021;-81
2021/08/23 00:35:01;;;;;;;6.88;3.58;;;;;;;13.56;100.00;100980.19;5053725;28;20480;-81
2021/08/23 00:37:26;;;;;;;10.50;3.30;;;;;;;13.64;100.00;100975.66;5053494;28;20425;-80
2021/08/23 00:39:52;;;;;;;10.35;3.40;;;;;;;13.64;100.00;100977.41;5053550;28;20386;-80
2021/08/23 00:42:17;;;;;;;12.63;3.40;;;;;;;13.68;100.00;100973.84;5054650;28;20104;-81
2021/08/23 00:44:43;;;;;;;9.10;3.42;;;;;;;13.70;100.00;100979.84;5054831;28;20016;-80
2021/08/23 00:47:09;;;;;;;7.35;3.40;;;;;;;13.73;100.00;100972.84;5053339;28;20034;-81
2021/08/23 00:49:35;;;;;;;8.45;3.10;;;;;;;13.69;100.00;100976.41;5054874;28;20062;-81
2021/08/23 00:52:01;;;;;;;7.65;3.08;;;;;;;13.71;100.00;100976.38;5054669;28;20048;-81
2021/08/23 00:54:27;;;;;;;7.05;3.47;;;;;;;13.72;100.00;100975.47;5053167;28;20040;-81
2021/08/23 00:56:52;;;;;;;6.38;2.97;;;;;;;13.68;100.00;100979.06;5053268;28;20025;-80
2021/08/23 00:59:23;;;;;;;8.82;3.67;;;;;;;13.69;100.00;100975.53;5054397;28;20029;-81
2021/08/23 01:02:14;;;;;;;9.10;3.58;;;;;;;13.63;100.00;100975.69;5053075;28;20397;-81
2021/08/23 01:04:47;;;;;;;8.85;3.58;;;;;;;13.61;100.00;100977.47;5052853;28;20107;-81
2021/08/23 01:07:15;;;;;;;6.57;3.30;;;;;;;13.59;100.00;100975.75;5053311;28;20388;-81
2021/08/23 01:09:46;;;;;;;8.55;3.38;;;;;;;13.53;100.00;100975.91;5053149;28;20032;-80
2021/08/23 01:12:13;;;;;;;11.70;3.72;;;;;;;13.51;100.00;100977.69;5053106;28;20029;-81
2021/08/23 01:14:38;;;;;;;10.65;3.65;;;;;;;13.51;100.00;100982.91;5054145;28;20500;-81
2021/08/23 01:17:05;;;;;;;9.93;3.53;;;;;;;13.50;100.00;100982.94;5054239;28;20112;-81
2021/08/23 01:19:31;;;;;;;6.75;3.63;;;;;;;13.48;100.00;100980.38;5054048;28;20085;-81
2021/08/23 01:22:01;;;;;;;7.90;3.15;;;;;;;13.49;100.00;100984.72;5052922;28;20063;-81
2021/08/23 01:24:29;;;;;;;8.27;3.05;;;;;;;13.52;100.00;100984.63;5053946;28;20021;-80
2021/08/23 01:26:57;;;;;;;10.70;2.97;;;;;;;13.53;100.00;100980.28;5052848;28;20469;-81
2021/08/23 01:29:39;;;;;;;9.30;3.28;;;;;;;13.56;100.00;100986.25;5052656;28;20021;-81
2021/08/23 01:32:07;;;;;;;7.65;3.58;;;;;;;13.60;100.00;100992.25;5054036;28;20044;-81
2021/08/23 01:34:33;;;;;;;7.57;3.00;;;;;;;13.59;100.00;100991.41;5054028;28;20024;-80
2021/08/23 01:36:58;;;;;;;5.78;2.72;;;;;;;13.61;100.00;100991.38;5052371;28;20366;-80
2021/08/23 01:39:24;;;;;;;7.15;2.78;;;;;;;13.61;100.00;100993.09;5052376;28;20059;-80
2021/08/23 01:41:49;;;;;;;6.13;2.42;;;;;;;13.65;100.00;100993.00;5053547;28;20055;-79
2021/08/23 01:44:15;;;;;;;7.45;2.80;;;;;;;13.70;100.00;100995.50;5052212;28;20393;-79
2021/08/23 01:46:40;;;;;;;7.75;2.50;;;;;;;13.78;100.00;100997.03;5052071;28;20083;-79
2021/08/23 01:49:07;;;;;;;9.35;2.83;;;;;;;13.78;100.00;101001.38;5051779;28;20025;-79
2021/08/23 01:51:33;;;;;;;6.82;2.42;;;;;;;13.77;100.00;101002.28;5052251;28;20032;-79
2021/08/23 01:53:58;;;;;;;5.45;2.03;;;;;;;13.80;100.00;101003.06;5053363;28;20021;-79
2021/08/23 01:56:24;;;;;;;6.20;2.35;;;;;;;13.81;100.00;101002.16;5052038;28;20456;-78
2021/08/23 01:58:49;;;;;;;7.72;2.08;;;;;;;13.80;100.00;101004.81;5051911;28;20021;-78
2021/08/23 02:01:14;;;;;;;6.88;2.08;;;;;;;13.79;100.00;101005.69;5053306;28;20028;-79
2021/08/23 02:03:40;;;;;;;9.00;2.58;;;;;;;13.83;100.00;101002.16;5053200;28;20028;-79
2021/08/23 02:06:05;;;;;;;7.95;2.05;;;;;;;13.90;100.00;101000.25;5051661;28;20060;-79
2021/08/23 02:08:30;;;;;;;5.25;1.60;;;;;;;13.88;100.00;101002.88;5051835;28;20028;-79
2021/08/23 02:10:56;;;;;;;6.68;1.80;;;;;;;13.84;100.00;101003.00;5053098;28;20017;-79
2021/08/23 02:13:21;;;;;;;7.60;1.80;;;;;;;13.77;100.00;100999.69;5051793;28;20123;-79
2021/08/23 02:15:46;;;;;;;9.15;2.22;;;;;;;13.88;100.00;101000.25;5053161;28;20033;-79
2021/08/23 02:18:11;;;;;;;6.40;1.85;;;;;;;13.78;100.00;101017.03;5053034;28;20029;-79
2021/08/23 02:20:37;;;;;;;6.88;2.15;;;;;;;13.63;100.00;101013.03;5053400;28;20032;-79
2021/08/23 02:23:02;;;;;;;7.35;2.55;;;;;;;13.64;100.00;101009.56;5051827;28;20409;-79
2021/08/23 02:25:27;;;;;;;4.88;1.90;;;;;;;13.64;100.00;101011.28;5053484;28;20086;-79
2021/08/23 02:27:54;;;;;;;5.85;2.00;;;;;;;13.61;100.00;101014.84;5053005;28;20473;-79
2021/08/23 02:30:20;;;;;;;6.82;2.00;;;;;;;13.61;100.00;101008.75;5052170;28;20397;-79
2021/08/23 02:32:46;;;;;;;6.45;2.05;;;;;;;13.58;100.00;101007.94;5051771;28;20049;-79
2021/08/23 02:35:13;;;;;;;7.47;2.05;;;;;;;13.59;100.00;101017.47;5051683;28;20048;-79
2021/08/23 02:37:39;;;;;;;8.07;1.73;;;;;;;13.53;100.00;101007.19;5051669;28;20025;-79
2021/08/23 02:40:05;;;;;;;10.50;2.10;;;;;;;13.51;100.00;101008.09;5051714;28;20370;-79
2021/08/23 02:42:30;;;;;;;5.93;1.83;;;;;;;13.48;100.00;101018.59;5051416;28;20033;-79
2021/08/23 02:44:56;;;;;;;4.93;1.50;;;;;;;13.49;100.00;101015.13;5051422;28;20389;-79
2021/08/23 02:47:21;;;;;;;7.35;2.30;;;;;;;13.44;100.00;101020.44;5053061;28;20108;-79
2021/08/23 02:49:46;;;;;;;4.82;1.67;;;;;;;13.41;100.00;101028.31;5051649;28;20388;-79
2021/08/23 02:52:12;;;;;;;7.13;1.60;;;;;;;13.40;100.00;101021.41;5051634;28;20029;-81
2021/08/23 02:54:37;;;;;;;7.10;2.15;;;;;;;13.38;100.00;101027.53;5052659;28;20024;-81
2021/08/23 02:57:02;;;;;;;7.95;1.92;;;;;;;13.31;100.00;101027.66;5052937;28;20133;-81
2021/08/23 02:59:28;;;;;;;9.25;1.90;;;;;;;13.22;100.00;101035.66;5053096;28;20029;-81
2021/08/23 03:01:53;;;;;;;6.32;1.80;;;;;;;13.20;100.00;101033.97;5055272;28;20435;-81
2021/08/23 03:04:18;;;;;;;7.43;1.73;;;;;;;13.17;100.00;101032.28;5055244;28;20025;-81
2021/08/23 03:06:43;;;;;;;7.07;1.95;;;;;;;13.17;100.00;101029.66;5055027;28;20034;-81
2021/08/23 03:09:09;;;;;;;7.65;1.50;;;;;;;13.12;100.00;101037.59;5056381;28;20082;-82
2021/08/23 03:11:34;;;;;;;6.82;1.95;;;;;;;13.06;100.00;101036.88;5056620;28;20114;-82
2021/08/23 03:13:59;;;;;;;8.82;2.03;;;;;;;13.05;100.00;101041.22;5054947;28;20499;-81
2021/08/23 03:16:25;;;;;;;11.02;1.63;;;;;;;12.99;100.00;101040.47;5054953;28;20021;-81
2021/08/23 03:18:50;;;;;;;7.00;2.08;;;;;;;12.97;100.00;101047.47;5056227;28;20025;-81
2021/08/23 03:21:16;;;;;;;5.90;1.73;;;;;;;12.99;100.00;101049.16;5054853;28;20111;-81
2021/08/23 03:23:41;;;;;;;6.40;1.73;;;;;;;12.98;100.00;101050.03;5056335;28;20501;-81
2021/08/23 03:26:07;;;;;;;7.93;1.85;;;;;;;12.97;100.00;101047.47;5054846;28;20032;-81
2021/08/23 03:28:34;;;;;;;7.60;2.35;;;;;;;13.07;100.00;101044.63;5055050;28;20017;-81
2021/08/23 03:30:59;;;;;;;8.70;2.45;;;;;;;13.03;100.00;101050.81;5054676;28;20108;-81
2021/08/23 03:33:26;;;;;;;8.02;1.90;;;;;;;12.98;100.00;101052.63;5054609;28;20017;-81
2021/08/23 03:35:51;;;;;;;6.28;1.95;;;;;;;13.01;100.00;101062.13;5055747;28;20040;-81
2021/08/23 03:38:17;;;;;;;6.45;1.45;;;;;;;12.96;100.00;101062.25;5054641;28;20028;-81
2021/08/23 03:40:42;;;;;;;5.72;1.50;;;;;;;12.94;100.00;101060.56;5054455;28;20027;-81
2021/08/23 03:43:07;;;;;;;5.32;1.80;;;;;;;12.87;100.00;101057.22;5054450;28;20473;-81
2021/08/23 03:45:33;;;;;;;9.18;1.73;;;;;;;12.90;100.00;101064.97;5055633;28;20024;-81
2021/08/23 03:47:58;;;;;;;6.78;1.33;;;;;;;12.93;100.00;101064.03;5056005;28;20032;-82
2021/08/23 03:50:23;;;;;;;7.18;1.83;;;;;;;12.84;100.00;101063.34;5055513;28;20020;-82
2021/08/23 03:52:49;;;;;;;10.93;1.75;;;;;;;12.89;100.00;101068.44;5055623;28;20025;-81
2021/08/23 03:55:14;;;;;;;5.55;1.60;;;;;;;12.74;100.00;101072.19;5054200;28;20370;-82
2021/08/23 03:57:40;;;;;;;8.73;1.90;;;;;;;12.73;100.00;101077.44;5054202;28;20066;-81
2021/08/23 04:00:07;;;;;;;7.28;1.80;;;;;;;12.67;100.00;101081.84;5055381;28;20069;-81
2021/08/23 04:02:33;;;;;;;5.68;1.80;;;;;;;12.66;100.00;101084.50;5055262;28;20574;-81
2021/08/23 04:04:59;;;;;;;7.10;1.75;;;;;;;12.65;100.00;101082.78;5055147;28;20060;-81
2021/08/23 04:07:24;;;;;;;7.20;2.35;;;;;;;12.59;100.00;101086.38;5055245;28;20473;-81
2021/08/23 04:09:49;;;;;;;11.77;2.00;;;;;;;12.53;100.00;101078.66;5054034;28;20470;-81
2021/08/23 04:12:15;;;;;;;8.70;1.60;;;;;;;12.52;100.00;101086.50;5054001;28;20024;-81
2021/08/23 04:14:40;;;;;;;7.68;2.08;;;;;;;12.47;100.00;101088.31;5055028;28;20029;-81
2021/08/23 04:17:05;;;;;;;13.15;1.98;;;;;;;12.49;100.00;101094.34;5054643;28;20028;-81
2021/08/23 04:19:31;;;;;;;8.35;1.90;;;;;;;12.50;100.00;101094.34;5055041;28;20056;-81
2021/08/23 04:21:56;;;;;;;8.30;2.08;;;;;;;12.48;100.00;101097.84;5053725;28;20021;-81
2021/08/23 04:24:22;;;;;;;7.65;1.80;;;;;;;12.47;100.00;101098.72;5054969;28;20028;-81
2021/08/23 04:26:47;;;;;;;7.65;2.00;;;;;;;12.46;100.00;101105.66;5055094;28;20029;-82
2021/08/23 04:29:13;;;;;;;6.68;2.05;;;;;;;12.46;100.00;101110.00;5054925;28;20024;-81
2021/08/23 04:31:38;;;;;;;7.80;1.60;;;;;;;12.36;100.00;101117.13;5055057;28;20051;-81
2021/08/23 04:34:03;;;;;;;6.88;1.90;;;;;;;12.44;100.00;101116.09;5053533;28;20078;-81
2021/08/23 04:36:29;;;;;;;7.97;2.05;;;;;;;12.44;100.00;101116.09;5053406;28;20025;-81
2021/08/23 04:38:54;;;;;;;14.15;1.83;;;;;;;12.49;100.00;101118.63;5054720;28;20036;-81
2021/08/23 04:41:19;;;;;;;7.07;1.92;;;;;;;12.49;100.00;101115.16;5053219;28;20101;-81
2021/08/23 04:43:45;;;;;;;9.18;1.77;;;;;;;12.53;100.00;101122.91;5054552;28;20017;-81
2021/08/23 04:46:10;;;;;;;6.75;2.10;;;;;;;12.54;100.00;101124.63;5054427;28;20021;-82
2021/08/23 04:48:35;;;;;;;7.85;1.80;;;;;;;12.62;100.00;101121.84;5054534;28;20029;-81
2021/08/23 04:51:03;;;;;;;7.00;1.52;;;;;;;12.67;100.00;101128.72;5053314;28;20028;-81
2021/08/23 04:53:29;;;;;;;6.38;1.80;;;;;;;12.74;100.00;101133.81;5054429;28;20031;-81
2021/08/23 04:55:54;;;;;;;7.07;2.22;;;;;;;12.77;100.00;101133.75;5054258;28;20439;-81
2021/08/23 04:58:21;;;;;;;7.32;1.60;;;;;;;12.81;100.00;101140.63;5053022;28;20083;-81
2021/08/23 05:00:46;;;;;;;6.30;1.88;;;;;;;12.87;100.00;101141.38;5054119;28;20389;-81
2021/08/23 05:03:12;;;;;;;8.82;1.80;;;;;;;12.92;100.00;101137.81;5052972;28;20021;-81
2021/08/23 05:05:37;;;;;;;9.45;2.45;;;;;;;12.94;100.00;101146.47;5053790;28;20124;-81
2021/08/23 05:08:03;;;;;;;7.80;2.65;;;;;;;12.96;100.00;101150.78;5077553;22;20045;-80
2021/08/23 05:10:28;;;;;;;8.50;2.08;;;;;;;13.00;100.00;101156.78;5056092;28;20028;-80
2021/08/23 05:12:55;;;;;;;7.15;2.05;;;;;;;13.05;100.00;101161.00;5056289;28;20070;-80
2021/08/23 05:15:20;;;;;;;9.27;2.35;;;;;;;13.18;100.00;101163.34;5056222;28;20028;-81
2021/08/23 05:17:46;;;;;;;6.75;2.22;;;;;;;13.10;100.00;101164.38;5056217;28;20033;-80
2021/08/23 05:20:11;;;;;;;7.07;2.00;;;;;;;13.25;100.00;101171.06;5055579;28;20040;-80
2021/08/23 05:22:38;;;;;;;8.85;1.88;;;;;;;13.23;100.00;101159.78;5056305;28;20488;-79
2021/08/23 05:25:04;;;;;;;8.45;2.00;;;;;;;13.25;100.00;101170.22;5056838;28;20025;-80
2021/08/23 05:27:29;;;;;;;6.72;2.20;;;;;;;13.47;100.00;101171.50;5054561;28;20500;-79
2021/08/23 05:29:54;;;;;;;6.07;2.20;;;;;;;13.35;100.00;101176.97;5056552;28;20024;-79
2021/08/23 05:32:20;;;;;;;8.40;2.00;;;;;;;13.37;100.00;101177.78;5054811;28;20043;-79
2021/08/23 05:34:46;;;;;;;7.40;2.30;;;;;;;13.48;100.00;101186.22;5055918;28;20021;-79
2021/08/23 05:37:12;;;;;;;8.88;1.55;;;;;;;13.51;100.00;101182.72;5056721;28;20109;-80
2021/08/23 05:39:37;;;;;;;8.35;2.00;;;;;;;13.63;100.00;101189.44;5054792;28;20056;-80
2021/08/23 05:42:02;;;;;;;11.10;2.53;;;;;;;13.67;100.00;101180.66;5055552;28;20025;-79
2021/08/23 05:44:28;;;;;;;6.93;2.20;;;;;;;13.67;100.00;101191.97;5054682;28;20028;-79
2021/08/23 05:46:53;;;;;;;11.75;2.20;;;;;;;13.65;100.00;101187.66;5055982;28;20028;-80
2021/08/23 05:49:18;;;;;;;6.15;2.13;;;;;;;13.87;100.00;101180.22;5055800;28;20104;-80
2021/08/23 05:51:44;;;;;;;8.38;2.17;;;;;;;13.87;100.00;101185.44;5055055;28;20040;-80
2021/08/23 05:54:10;;;;;;;7.95;2.17;;;;;;;13.96;100.00;101190.47;5055133;28;20029;-80
2021/08/23 05:56:40;;;;;;;8.10;2.65;;;;;;;14.07;100.00;101180.66;5055889;28;20088;-80
2021/08/23 05:59:05;;;;;;;10.98;2.70;;;;;;;14.22;100.00;101189.84;5056157;28;20025;-79
2021/08/23 06:01:30;;;;;;;9.75;2.05;;;;;;;14.09;100.00;101188.44;5054671;28;20027;-80
2021/08/23 06:03:56;;;;;;;7.97;2.40;;;;;;;14.07;100.00;101192.81;5057608;28;20021;-80
2021/08/23 06:06:21;;;;;;;7.53;2.10;;;;;;;14.20;100.00;101189.91;5057437;28;20033;-80
2021/08/23 06:08:46;;;;;;;7.70;1.98;;;;;;;14.37;100.00;101189.50;5057492;28;20120;-80
2021/08/23 06:11:12;;;;;;;4.65;1.60;;;;;;;14.35;100.00;101193.06;5056064;28;20025;-80
2021/08/23 06:13:37;;;;;;;9.25;2.88;;;;;;;14.57;100.00;101186.47;5058253;28;20031;-80
2021/08/23 06:16:02;;;;;;;6.57;2.13;;;;;;;14.34;100.00;101200.00;5057031;28;20029;-80
2021/08/23 06:18:28;;;;;;;8.27;2.20;;;;;;;14.49;100.00;101194.44;5055800;28;20107;-80
2021/08/23 06:20:53;;;;;;;10.63;2.40;;;;;;;14.41;100.00;101203.34;5056753;28;20389;-80
2021/08/23 06:23:19;;;;;;;7.60;2.42;;;;;;;14.79;100.00;101205.06;5056048;28;20088;-80
2021/08/23 06:25:45;;;;;;;8.18;2.03;;;;;;;14.68;100.00;101201.84;5057114;28;20085;-80
2021/08/23 06:28:11;;;;;;;8.30;2.47;;;;;;;14.57;100.00;101211.72;5056870;28;20032;-81
2021/08/23 06:30:36;;;;;;;9.77;2.50;;;;;;;14.48;100.00;101199.69;5057845;28;20025;-81
2021/08/23 06:33:01;;;;;;;6.75;2.28;;;;;;;15.16;100.00;101211.94;5057703;28;20021;-81
2021/08/23 06:35:26;;;;;;;8.70;2.75;;;;;;;14.92;100.00;101216.88;5058733;28;20024;-80
2021/08/23 06:37:52;;;;;;;6.55;1.80;;;;;;;14.91;100.00;101215.19;5059331;28;20452;-79
2021/08/23 06:40:17;;;;;;;8.32;2.13;;;;;;;15.76;100.00;101218.13;5059575;28;20544;-79
2021/08/23 06:42:42;;;;;;;7.97;3.00;;;;;;;15.43;100.00;101219.03;5057929;28;20025;-79
2021/08/23 06:45:08;;;;;;;6.22;2.22;;;;;;;16.33;100.00;101225.13;5059254;28;20025;-79
2021/08/23 06:47:34;;;;;;;7.07;2.20;;;;;;;15.81;100.00;101229.31;5058767;28;20033;-79
2021/08/23 06:50:00;;;;;;;8.55;3.03;;;;;;;15.29;100.00;101242.06;5058917;28;20017;-79
2021/08/23 06:52:25;;;;;;;7.10;2.10;;;;;;;15.12;100.00;101241.66;5058716;28;20389;-80
2021/08/23 06:54:50;;;;;;;6.10;2.20;;;;;;;15.06;100.00;101241.81;5059152;28;20444;-79
2021/08/23 06:57:16;;;;;;;9.90;2.63;;;;;;;15.22;100.00;101237.91;5058814;28;20021;-79
2021/08/23 06:59:41;;;;;;;7.07;2.10;;;;;;;15.09;100.00;101246.97;5057808;28;20493;-79
2021/08/23 07:02:06;;;;;;;6.15;1.90;;;;;;;15.24;100.00;101245.69;5058784;28;20501;-79
2021/08/23 07:04:32;;;;;;;6.43;1.70;;;;;;;15.57;100.00;101249.16;5059041;28;20079;-79
2021/08/23 07:06:57;;;;;;;6.50;1.92;;;;;;;15.34;100.00;101252.41;5059405;28;20021;-79
2021/08/23 07:09:22;;;;;;;6.50;1.75;;;;;;;15.48;100.00;101257.25;5059780;28;20028;-79
2021/08/23 07:11:47;;;;;;;7.97;1.83;;;;;;;15.37;100.00;101253.16;5058263;28;20017;-79
2021/08/23 07:14:13;;;;;;;5.35;1.77;;;;;;;15.75;100.00;101256.50;5059587;28;20104;-79
2021/08/23 07:16:38;;;;;;;8.73;2.08;;;;;;;16.06;100.00;101260.84;5058261;28;20385;-79
2021/08/23 07:19:03;;;;;;;5.47;1.67;;;;;;;16.50;100.00;101250.75;5059288;28;20064;-79
2021/08/23 07:21:29;;;;;;;8.20;1.70;;;;;;;16.98;100.00;101255.34;5058169;28;20052;-79
2021/08/23 07:23:54;;;;;;;5.60;2.03;;;;;;;17.53;100.00;101258.69;5058499;28;20057;-79
2021/08/23 07:26:19;;;;;;;5.53;1.60;;;;;;;17.54;100.00;101255.13;5064096;28;20029;-79
2021/08/23 07:28:44;;;;;;;5.78;1.60;;;;;;;18.50;100.00;101253.25;5066458;28;20454;-79
2021/08/23 07:31:10;;;;;;;5.82;1.67;;;;;;;18.25;100.00;101260.41;5065287;28;20028;-78
2021/08/23 07:33:35;;;;;;;6.65;1.63;;;;;;;18.83;100.00;101252.84;5066332;28;20104;-79
2021/08/23 07:36:01;;;;;;;7.70;1.75;;;;;;;18.66;100.00;101271.91;5060000;28;20116;-78
2021/08/23 07:38:26;;;;;;;6.80;1.52;;;;;;;18.45;100.00;101265.75;5055147;28;20025;-78
2021/08/23 07:40:52;;;;;;;11.63;1.65;;;;;;;18.98;100.00;101270.59;5056929;28;20033;-79
2021/08/23 07:43:17;;;;;;;5.97;1.45;;;;;;;18.09;100.00;101270.66;5057605;28;20501;-79
2021/08/23 07:45:42;;;;;;;4.60;1.30;;;;;;;18.14;100.00;101271.34;5056538;28;20021;-80
2021/08/23 07:48:08;;;;;;;4.97;1.17;;;;;;;18.12;100.00;101271.38;5058600;28;20025;-79
2021/08/23 07:50:34;;;;;;;5.65;1.95;;;;;;;18.14;100.00;101266.09;5059192;28;20029;-79
2021/08/23 07:53:00;;;;;;;4.38;1.30;;;;;;;18.21;100.00;101279.81;5058611;28;20376;-79
2021/08/23 07:55:25;;;;;;;8.32;1.50;;;;;;;18.05;100.00;101276.94;5056630;28;20056;-80
2021/08/23 07:57:51;;;;;;;4.60;1.33;;;;;;;17.72;100.00;101285.94;5056738;28;20056;-79
2021/08/23 08:00:18;;;;;;;5.97;1.20;;;;;;;17.77;100.00;101285.84;5056612;28;20021;-79
2021/08/23 08:02:44;;;;;;;6.07;1.48;;;;;;;18.90;100.00;101293.72;5058317;28;20021;-79
2021/08/23 08:05:09;;;;;;;3.67;1.10;;;;;;;19.28;100.00;101292.13;5058658;28;20397;-79
2021/08/23 08:07:35;;;;;;;11.77;1.48;;;;;;;20.22;97.13;101295.84;5058146;28;20032;-79
2021/08/23 08:10:01;;;;;;;6.07;1.42;;;;;;;19.60;100.00;101299.53;5057494;28;20024;-79
2021/08/23 08:12:26;;;;;;;6.60;1.80;;;;;;;19.05;100.00;101300.13;5057862;28;20575;-80
2021/08/23 08:14:54;;;;;;;8.18;1.52;;;;;;;19.71;100.00;101306.06;5058181;28;20048;-80
2021/08/23 08:17:20;;;;;;;3.80;1.40;;;;;;;20.85;95.32;101299.00;5057125;28;20025;-80
2021/08/23 08:19:45;;;;;;;4.30;1.17;;;;;;;19.79;100.00;101310.97;5057411;28;20032;-80
2021/08/23 08:22:13;;;;;;;7.13;1.85;;;;;;;19.18;98.75;101313.59;5057466;28;20428;-80
2021/08/23 08:24:38;;;;;;;5.25;1.35;;;;;;;19.93;94.97;101313.88;5058286;28;20439;-79
2021/08/23 08:27:03;;;;;;;4.13;1.00;;;;;;;20.00;94.48;101317.91;5057384;28;20060;-80
2021/08/23 08:29:29;;;;;;;4.68;1.10;;;;;;;19.59;96.70;101316.25;5058689;28;20092;-80
2021/08/23 08:31:54;;;;;;;8.25;1.00;;;;;;;19.23;96.49;101314.28;5058964;28;20021;-80
2021/08/23 08:34:19;;;;;;;5.95;1.23;;;;;;;19.37;93.70;101321.59;5058837;28;20021;-80
2021/08/23 08:36:45;;;;;;;2.80;1.00;;;;;;;19.66;94.79;101318.56;5057014;28;20055;-79
2021/08/23 08:39:11;;;;;;;4.55;1.25;;;;;;;20.25;85.72;101329.97;5057319;28;20109;-79
2021/08/23 08:41:36;;;;;;;3.38;1.10;;;;;;;20.10;84.98;101328.88;5055089;28;20512;-79
2021/08/23 08:44:02;;;;;;;1.70;0.70;;;;;;;19.99;83.55;101329.38;5056263;28;20444;-79
2021/08/23 08:46:28;;;;;;;3.33;0.70;;;;;;;20.52;80.41;101325.22;5058765;28;20385;-79
2021/08/23 08:48:56;;;;;;;3.40;0.80;;;;;;;20.05;82.67;101328.25;5057336;28;20059;-80
2021/08/23 08:51:22;;;;;;;3.60;0.98;;;;;;;21.15;78.56;101327.41;5055882;28;20020;-80
2021/08/23 08:53:47;;;;;;;4.25;1.00;;;;;;;20.68;77.38;101349.06;5058407;28;20040;-80
2021/08/23 08:56:12;;;;;;;5.25;1.10;;;;;;;20.56;85.87;101344.38;5055845;28;20028;-79
2021/08/23 08:58:37;;;;;;;4.53;1.00;;;;;;;21.29;76.89;101350.47;5057660;28;20024;-79
2021/08/23 09:01:04;;;;;;;3.47;1.00;;;;;;;20.36;80.88;101343.50;5057463;28;20508;-79
2021/08/23 09:03:30;;;;;;;4.65;1.25;;;;;;;21.08;76.54;101349.75;5057853;28;20029;-79
2021/08/23 09:06:04;;;;;;;3.05;0.90;;;;;;;21.29;75.24;101346.06;5056130;28;20052;-79
2021/08/23 09:08:30;;;;;;;8.90;1.77;;;;;;;22.25;77.10;101355.19;5056696;28;20434;-79
2021/08/23 09:11:12;;;;;;;3.03;1.05;;;;;;;21.35;73.19;101355.44;5057200;28;20021;-79
2021/08/23 09:13:37;;;;;;;4.65;1.50;;;;;;;21.02;75.12;101347.44;5056766;28;20557;-79
2021/08/23 09:16:03;;;;;;;5.68;1.17;;;;;;;21.60;75.17;101345.38;5055253;28;20052;-79
2021/08/23 09:18:28;;;;;;;4.03;1.27;;;;;;;22.59;66.50;101353.34;5056916;28;20031;-79
2021/08/23 09:21:00;;;;;;;4.55;0.90;;;;;;;21.95;64.14;101344.44;5055117;28;20028;-79
2021/08/23 09:23:34;;;;;;;3.55;0.90;;;;;;;21.14;67.93;101354.72;5057341;28;20035;-79
2021/08/23 09:26:10;;;;;;;2.63;0.93;;;;;;;21.81;65.71;101353.97;5057533;28;20025;-79
2021/08/23 09:28:37;;;;;;;4.35;1.00;;;;;;;21.34;65.67;101357.25;5056975;28;20450;-80
2021/08/23 09:31:03;;;;;;;2.90;1.00;;;;;;;21.80;63.82;101362.84;5056277;28;20040;-80
2021/08/23 09:33:29;;;;;;;4.63;1.27;;;;;;;21.82;63.42;101357.44;5055404;28;20033;-80
2021/08/23 09:35:55;;;;;;;5.90;1.77;;;;;;;21.45;64.25;101351.44;5056097;28;20029;-79
2021/08/23 09:38:20;;;;;;;5.05;1.10;;;;;;;22.34;60.31;101356.47;5055403;28;20142;-79
2021/08/23 09:40:47;;;;;;;4.57;1.17;;;;;;;21.89;65.91;101358.84;5056590;28;20021;-79
2021/08/23 09:43:15;;;;;;;4.65;1.20;;;;;;;22.09;64.10;101360.41;5056161;28;20043;-79
2021/08/23 09:45:49;;;;;;;4.75;1.45;;;;;;;23.04;59.36;101364.94;5054750;28;20028;-79
2021/08/23 09:48:16;;;;;;;4.47;1.38;;;;;;;23.52;59.68;101357.69;5056175;28;20029;-79
2021/08/23 09:50:46;;;;;;;4.95;1.27;;;;;;;23.32;57.50;101361.53;5056028;28;20082;-79
2021/08/23 09:53:14;;;;;;;7.30;1.30;;;;;;;22.48;58.05;101365.38;5054511;28;20087;-79
2021/08/23 09:55:41;;;;;;;4.20;1.30;;;;;;;21.26;59.15;101371.75;5056878;28;20031;-79
2021/08/23 09:58:08;;;;;;;6.28;1.33;;;;;;;21.73;60.40;101364.06;5054767;28;20025;-79
2021/08/23 10:00:34;;;;;;;5.63;1.40;;;;;;;22.11;59.07;101370.94;5056856;28;20032;-79
2021/08/23 10:03:01;;;;;;;4.05;1.20;;;;;;;22.70;56.90;101374.75;5056508;28;20025;-79
2021/08/23 10:05:27;;;;;;;5.10;1.40;;;;;;;20.66;65.60;101382.56;5054998;28;20025;-79
2021/08/23 10:07:54;;;;;;;5.97;1.38;;;;;;;21.40;61.46;101373.72;5054570;28;20040;-79
2021/08/23 10:10:20;;;;;;;3.42;1.20;;;;;;;19.88;64.46;101376.41;5056221;28;20029;-79
2021/08/23 10:12:48;;;;;;;4.55;1.10;;;;;;;20.30;63.03;101385.94;5055183;28;20038;-79
2021/08/23 10:15:13;;;;;;;3.35;1.10;;;;;;;21.13;60.22;101388.19;5056711;28;20057;-79
2021/08/23 10:17:39;;;;;;;4.18;1.33;;;;;;;21.93;57.61;101389.44;5054456;28;20078;-80
2021/08/23 10:20:07;;;;;;;4.90;1.40;;;;;;;21.76;57.07;101384.19;5056090;28;20035;-79
2021/08/23 10:22:38;;;;;;;4.88;1.42;;;;;;;21.25;62.03;101396.44;5054319;28;20510;-79
2021/08/23 10:25:06;;;;;;;4.47;1.70;;;;;;;22.00;58.42;101388.19;5056017;28;20435;-79
2021/08/23 10:27:33;;;;;;;5.07;1.50;;;;;;;22.47;57.46;101379.50;5055781;28;20457;-79
2021/08/23 10:29:58;;;;;;;4.90;1.45;;;;;;;21.38;59.58;101387.84;5055492;28;20027;-79
2021/08/23 10:32:33;;;;;;;6.38;1.30;;;;;;;22.32;60.38;101390.06;5056176;28;20423;-79
2021/08/23 10:35:18;;;;;;;5.75;1.63;;;;;;;22.53;55.94;101384.44;5055421;28;20024;-79
2021/08/23 10:37:43;;;;;;;;;;;;;;;20.28;63.82;101402.75;5056481;28;20021;-79
2021/08/23 10:40:10;;;;;;;7.25;1.42;;;;;;;21.68;59.70;101384.59;5054669;28;19908;-79
2021/08/23 10:42:38;;;;;;;5.05;1.70;;;;;;;21.78;59.16;101390.25;5056145;28;20397;-79
2021/08/23 10:45:12;;;;;;;6.28;1.52;;;;;;;22.18;55.59;101385.53;5054182;28;20032;-79
2021/08/23 10:47:38;;;;;;;4.18;1.30;;;;;;;22.11;57.56;101382.34;5054696;28;20108;-79
2021/08/23 10:50:05;;;;;;;4.00;1.20;;;;;;;23.28;54.67;101389.97;5054612;28;20032;-79
2021/08/23 10:52:36;;;;;;;3.88;1.13;;;;;;;22.03;55.43;101389.81;5055431;28;20400;-79
2021/08/23 10:55:05;;;;;;;9.10;1.80;;;;;;;22.67;55.47;101401.38;5055849;28;20104;-80
2021/08/23 10:57:31;;;;;;;4.93;1.50;;;;;;;23.09;53.56;101397.25;5054507;28;20106;-79
2021/08/23 11:00:10;;;;;;;7.60;1.43;;;;;;;23.06;53.55;101398.31;5055300;28;20028;-80
2021/08/23 11:02:38;;;;;;;4.63;1.40;;;;;;;23.60;51.85;101392.50;5057399;28;20371;-80
2021/08/23 11:05:11;;;;;;;5.07;1.17;;;;;;;22.69;52.91;101396.81;5056293;28;20396;-80
2021/08/23 11:07:40;;;;;;;2.50;1.02;;;;;;;22.43;51.51;101393.00;5054839;28;20025;-79
2021/08/23 11:10:14;;;;;;;3.70;1.10;;;;;;;22.41;51.71;101398.34;5079011;22;20111;-81
2021/08/23 11:12:46;;;;;;;3.38;1.00;;;;;;;22.44;50.97;101398.19;5052736;28;20037;-79
2021/08/23 11:15:20;;;;;;;2.95;0.95;;;;;;;22.57;50.72;101397.50;5052193;28;20119;-81